createdAt,value
2022-10-30T00:01:51.640Z,98766.44
2022-10-30T00:04:19.769Z,98774.00
2022-10-30T00:06:49.968Z,98776.63
2022-10-30T00:09:18.053Z,98781.47
2022-10-30T00:11:46.043Z,98783.22
2022-10-30T00:14:14.054Z,98783.34
2022-10-30T00:16:42.033Z,98791.03
2022-10-30T00:19:10.026Z,98778.63
2022-10-30T00:21:38.067Z,98782.84
2022-10-30T00:24:08.831Z,98793.16
2022-10-30T00:26:36.943Z,98789.50
2022-10-30T00:29:04.926Z,98780.91
2022-10-30T00:31:32.933Z,98776.06
2022-10-30T00:34:02.206Z,98785.50
2022-10-30T00:36:30.168Z,98786.91
2022-10-30T00:38:58.189Z,98787.00
2022-10-30T00:41:27.583Z,98785.50
2022-10-30T00:43:56.593Z,98784.75
2022-10-30T00:46:29.194Z,98777.34
2022-10-30T00:49:00.636Z,98789.81
2022-10-30T00:51:30.071Z,98787.16
2022-10-30T00:54:01.860Z,98779.25
2022-10-30T00:56:32.219Z,98782.28
2022-10-30T00:59:02.940Z,98787.66
2022-10-30T01:01:35.041Z,98782.22
2022-10-30T01:04:04.628Z,98766.38
2022-10-30T01:06:34.990Z,98764.03
2022-10-30T01:09:04.655Z,98753.97
2022-10-30T01:11:34.202Z,98743.91
2022-10-30T01:14:07.119Z,98743.91
2022-10-30T01:17:01.976Z,98734.84
2022-10-30T01:19:39.148Z,98763.50
2022-10-30T01:22:31.606Z,98774.56
2022-10-30T01:25:10.667Z,98777.59
2022-10-30T01:27:50.907Z,98761.66
2022-10-30T01:30:29.144Z,98757.13
2022-10-30T01:33:12.904Z,98751.66
2022-10-30T01:35:47.093Z,98734.09
2022-10-30T01:38:20.646Z,98743.72
2022-10-30T01:40:52.180Z,98751.81
2022-10-30T01:43:21.638Z,98755.34
2022-10-30T01:46:13.962Z,98742.63
2022-10-30T01:48:57.315Z,98734.34
2022-10-30T01:51:41.526Z,98738.97
2022-10-30T01:54:22.074Z,98744.13
2022-10-30T01:57:00.938Z,98736.47
2022-10-30T01:59:35.699Z,98753.44
2022-10-30T02:02:03.889Z,98749.84
2022-10-30T02:04:33.096Z,98741.50
2022-10-30T02:07:01.179Z,98746.97
2022-10-30T02:09:29.378Z,98739.69
2022-10-30T02:11:57.718Z,98744.44
2022-10-30T02:14:30.192Z,98739.84
2022-10-30T02:17:03.277Z,98725.53
2022-10-30T02:19:31.350Z,98727.09
2022-10-30T02:22:00.885Z,98734.50
2022-10-30T02:24:30.219Z,98723.91
2022-10-30T02:26:58.383Z,98719.47
2022-10-30T02:29:26.410Z,98734.78
2022-10-30T02:31:54.398Z,98748.00
2022-10-30T02:34:22.561Z,98763.72
2022-10-30T02:36:50.537Z,98766.66
2022-10-30T02:39:21.380Z,98766.25
2022-10-30T02:41:49.935Z,98761.28
2022-10-30T02:44:17.937Z,98750.28
2022-10-30T02:46:47.985Z,98755.88
2022-10-30T02:49:16.132Z,98757.63
2022-10-30T02:51:44.186Z,98751.13
2022-10-30T02:54:14.012Z,98755.53
2022-10-30T02:56:43.783Z,98752.63
2022-10-30T02:59:11.990Z,98754.97
2022-10-30T03:01:40.208Z,98753.19
2022-10-30T03:04:08.449Z,98752.41
2022-10-30T03:06:36.443Z,98748.13
2022-10-30T03:09:04.542Z,98750.31
2022-10-30T03:11:34.766Z,98744.00
2022-10-30T03:14:04.175Z,98740.78
2022-10-30T03:16:33.654Z,98736.19
2022-10-30T03:19:01.701Z,98720.34
2022-10-30T03:21:30.593Z,98715.38
2022-10-30T03:23:58.692Z,98714.13
2022-10-30T03:26:27.248Z,98737.63
2022-10-30T03:29:00.416Z,98747.25
2022-10-30T03:31:32.758Z,98741.25
2022-10-30T03:34:17.464Z,98734.00
2022-10-30T03:36:45.469Z,98744.13
2022-10-30T03:39:14.256Z,98739.25
2022-10-30T03:41:44.700Z,98747.16
2022-10-30T03:44:13.618Z,98744.78
2022-10-30T03:46:43.045Z,98741.53
2022-10-30T03:49:40.398Z,98736.94
2022-10-30T03:52:12.296Z,98732.19
2022-10-30T03:54:40.261Z,98727.97
2022-10-30T03:57:09.608Z,98737.88
2022-10-30T03:59:45.664Z,98745.16
2022-10-30T04:02:40.885Z,98741.34
2022-10-30T04:05:10.155Z,98740.69
2022-10-30T04:07:38.115Z,98738.66
2022-10-30T04:10:06.947Z,98737.91
2022-10-30T04:12:35.526Z,98747.63
2022-10-30T04:15:03.689Z,98730.78
2022-10-30T04:17:31.612Z,98730.00
2022-10-30T04:20:03.853Z,98740.53
2022-10-30T04:22:33.216Z,98744.84
2022-10-30T04:25:01.259Z,98728.34
2022-10-30T04:27:31.921Z,98730.38
2022-10-30T04:29:59.945Z,98746.00
2022-10-30T04:32:28.439Z,98738.38
2022-10-30T04:34:56.607Z,98742.63
2022-10-30T04:37:27.277Z,98746.81
2022-10-30T04:39:55.271Z,98749.66
2022-10-30T04:42:27.283Z,98742.63
2022-10-30T04:44:55.288Z,98733.19
2022-10-30T04:47:23.284Z,98737.56
2022-10-30T04:49:51.262Z,98729.81
2022-10-30T04:52:19.317Z,98733.34
2022-10-30T04:54:48.711Z,98728.09
2022-10-30T04:57:16.981Z,98731.53
2022-10-30T04:59:45.177Z,98741.41
2022-10-30T05:02:13.387Z,98742.09
2022-10-30T05:04:41.651Z,98748.47
2022-10-30T05:07:09.597Z,98737.59
2022-10-30T05:09:37.605Z,98736.88
2022-10-30T05:12:07.509Z,98736.25
2022-10-30T05:14:43.236Z,98735.41
2022-10-30T05:17:11.379Z,98743.25
2022-10-30T05:19:39.330Z,98747.78
2022-10-30T05:22:07.575Z,98742.75
2022-10-30T05:24:36.710Z,98751.88
2022-10-30T05:27:06.204Z,98751.31
2022-10-30T05:29:34.899Z,98747.69
2022-10-30T05:32:02.910Z,98744.84
2022-10-30T05:34:42.528Z,98740.25
2022-10-30T05:37:11.876Z,98732.97
2022-10-30T05:39:39.856Z,98724.19
2022-10-30T05:42:16.614Z,98738.44
2022-10-30T05:45:05.112Z,98732.25
2022-10-30T05:47:36.518Z,98745.69
2022-10-30T05:50:05.027Z,98743.53
2022-10-30T05:52:33.029Z,98745.88
2022-10-30T05:55:01.585Z,98763.53
2022-10-30T05:58:01.239Z,98763.81
2022-10-30T06:00:31.797Z,98770.78
2022-10-30T06:03:04.043Z,98773.81
2022-10-30T06:05:35.031Z,98767.47
2022-10-30T06:08:03.254Z,98771.81
2022-10-30T06:10:31.563Z,98768.63
2022-10-30T06:13:08.610Z,98758.63
2022-10-30T06:15:43.851Z,98769.19
2022-10-30T06:18:12.001Z,98758.16
2022-10-30T06:20:45.399Z,98762.06
2022-10-30T06:23:31.774Z,98761.53
2022-10-30T06:26:05.254Z,98750.06
2022-10-30T06:28:52.380Z,98746.81
2022-10-30T06:33:49.204Z,98751.16
2022-10-30T06:36:17.596Z,98758.28
2022-10-30T06:38:45.991Z,98753.88
2022-10-30T06:41:17.478Z,98764.22
2022-10-30T06:44:01.284Z,98752.81
2022-10-30T06:46:33.757Z,98754.66
2022-10-30T06:49:02.482Z,98761.72
2022-10-30T06:51:33.058Z,98763.91
2022-10-30T06:54:01.716Z,98764.53
2022-10-30T06:56:52.756Z,98762.91
2022-10-30T06:59:44.932Z,98759.75
2022-10-30T07:02:31.652Z,98758.72
2022-10-30T07:05:04.872Z,98755.38
2022-10-30T07:07:33.153Z,98754.97
2022-10-30T07:10:01.822Z,98759.97
2022-10-30T07:12:54.608Z,98762.59
2022-10-30T07:15:39.891Z,98755.72
2022-10-30T07:18:23.568Z,98745.09
2022-10-30T07:20:56.268Z,98752.25
2022-10-30T07:23:25.208Z,98743.59
2022-10-30T07:26:02.479Z,98740.03
2022-10-30T07:28:36.801Z,98746.72
2022-10-30T07:31:24.245Z,98752.25
2022-10-30T07:34:32.646Z,98759.22
2022-10-30T07:37:24.730Z,98770.88
2022-10-30T07:40:22.035Z,98781.34
2022-10-30T07:43:01.116Z,98778.56
2022-10-30T07:46:01.551Z,98782.53
2022-10-30T07:48:57.503Z,98777.63
2022-10-30T07:51:30.521Z,98769.22
2022-10-30T07:53:59.056Z,98763.56
2022-10-30T07:56:27.120Z,98760.66
2022-10-30T07:58:55.250Z,98755.75
2022-10-30T08:01:32.176Z,98755.94
2022-10-30T08:04:14.124Z,98757.94
2022-10-30T08:06:42.210Z,98763.78
2022-10-30T08:09:10.511Z,98765.81
2022-10-30T08:11:38.518Z,98768.09
2022-10-30T08:14:06.852Z,98774.16
2022-10-30T08:16:34.820Z,98767.06
2022-10-30T08:19:04.399Z,98764.91
2022-10-30T08:21:34.346Z,98765.56
2022-10-30T08:24:12.319Z,98754.66
2022-10-30T08:26:43.110Z,98743.22
2022-10-30T08:29:12.554Z,98746.13
2022-10-30T08:31:41.186Z,98743.81
2022-10-30T08:34:26.687Z,98748.34
2022-10-30T08:36:57.661Z,98746.22
2022-10-30T08:39:25.934Z,98749.69
2022-10-30T08:42:32.186Z,98748.28
2022-10-30T08:45:02.724Z,98751.47
2022-10-30T08:47:59.503Z,98743.53
2022-10-30T08:50:29.457Z,98742.06
2022-10-30T08:53:04.011Z,98733.38
2022-10-30T08:55:33.297Z,98737.50
2022-10-30T08:58:04.051Z,98737.25
2022-10-30T09:00:32.667Z,98732.88
2022-10-30T09:03:12.383Z,98733.22
2022-10-30T09:05:59.737Z,98724.56
2022-10-30T09:08:52.302Z,98726.81
2022-10-30T09:11:39.088Z,98718.13
2022-10-30T09:14:07.064Z,98720.84
2022-10-30T09:16:35.956Z,98721.56
2022-10-30T09:19:04.101Z,98714.44
2022-10-30T09:21:32.205Z,98716.47
2022-10-30T09:24:02.603Z,98721.31
2022-10-30T09:26:37.003Z,98727.91
2022-10-30T09:29:23.707Z,98710.03
2022-10-30T09:32:08.800Z,98712.41
2022-10-30T09:34:42.260Z,98707.19
2022-10-30T09:37:15.681Z,98710.06
2022-10-30T09:39:48.171Z,98700.66
2022-10-30T09:42:37.953Z,98708.16
2022-10-30T09:45:32.892Z,98708.31
2022-10-30T09:48:20.497Z,98706.06
2022-10-30T09:51:17.547Z,98713.41
2022-10-30T09:53:54.497Z,98716.69
2022-10-30T09:56:34.911Z,98717.38
2022-10-30T09:59:13.647Z,98721.06
2022-10-30T10:01:49.196Z,98719.00
2022-10-30T10:04:27.258Z,98723.53
2022-10-30T10:07:24.352Z,98722.78
2022-10-30T10:10:25.168Z,98719.19
2022-10-30T10:13:04.905Z,98716.78
2022-10-30T10:15:40.784Z,98710.44
2022-10-30T10:18:19.244Z,98708.75
2022-10-30T10:20:51.501Z,98707.66
2022-10-30T10:23:21.585Z,98698.25
2022-10-30T10:25:54.086Z,98699.41
2022-10-30T10:28:48.290Z,98693.88
2022-10-30T10:31:28.542Z,98696.88
2022-10-30T10:34:16.155Z,98698.63
2022-10-30T10:36:51.534Z,98692.00
2022-10-30T10:39:41.054Z,98696.31
2022-10-30T10:42:20.599Z,98706.63
2022-10-30T10:45:03.383Z,98707.84
2022-10-30T10:47:47.441Z,98709.19
2022-10-30T10:50:23.371Z,98707.31
2022-10-30T10:52:57.822Z,98705.09
2022-10-30T10:55:30.034Z,98698.84
2022-10-30T10:58:07.166Z,98703.03
2022-10-30T11:00:36.773Z,98700.28
2022-10-30T11:03:10.601Z,98700.25
2022-10-30T11:05:43.060Z,98708.56
2022-10-30T11:08:16.400Z,98696.69
2022-10-30T11:10:44.507Z,98694.09
2022-10-30T11:13:14.812Z,98684.34
2022-10-30T11:15:55.080Z,98680.44
2022-10-30T11:18:23.251Z,98686.72
2022-10-30T11:20:58.871Z,98686.44
2022-10-30T11:23:39.953Z,98684.38
2022-10-30T11:26:29.475Z,98685.69
2022-10-30T11:29:00.167Z,98689.91
2022-10-30T11:31:34.884Z,98693.38
2022-10-30T11:34:26.879Z,98700.41
2022-10-30T11:36:55.796Z,98700.84
2022-10-30T11:39:25.618Z,98698.03
2022-10-30T11:42:02.227Z,98697.44
2022-10-30T11:44:34.859Z,98694.31
2022-10-30T11:47:05.893Z,98690.78
2022-10-30T11:49:41.504Z,98698.72
2022-10-30T11:52:10.558Z,98691.69
2022-10-30T11:54:44.815Z,98688.84
2022-10-30T11:57:33.673Z,98687.19
2022-10-30T12:00:05.299Z,98681.06
2022-10-30T12:02:44.457Z,98687.09
2022-10-30T12:05:35.565Z,98667.78
2022-10-30T12:08:19.018Z,98669.28
2022-10-30T12:10:55.058Z,98659.03
2022-10-30T12:13:24.729Z,98665.31
2022-10-30T12:16:06.992Z,98671.78
2022-10-30T12:18:36.845Z,98674.44
2022-10-30T12:21:05.595Z,98672.19
2022-10-30T12:23:34.878Z,98669.00
2022-10-30T12:26:10.615Z,98669.63
2022-10-30T12:28:40.043Z,98663.59
2022-10-30T12:31:13.575Z,98662.25
2022-10-30T12:33:50.060Z,98660.34
2022-10-30T12:36:21.787Z,98667.09
2022-10-30T12:38:53.745Z,98668.69
2022-10-30T12:41:26.454Z,98664.03
2022-10-30T12:44:04.072Z,98654.81
2022-10-30T12:46:37.395Z,98658.34
2022-10-30T12:49:15.836Z,98662.25
2022-10-30T12:51:50.090Z,98660.47
2022-10-30T12:54:27.237Z,98650.28
2022-10-30T12:57:01.710Z,98655.50
2022-10-30T12:59:37.318Z,98642.31
2022-10-30T13:02:21.981Z,98651.16
2022-10-30T13:04:58.148Z,98648.44
2022-10-30T13:07:32.724Z,98634.91
2022-10-30T13:10:14.210Z,98633.03
2022-10-30T13:12:46.267Z,98633.34
2022-10-30T13:15:22.363Z,98630.25
2022-10-30T13:17:51.770Z,98630.94
2022-10-30T13:20:22.671Z,98629.75
2022-10-30T13:22:55.704Z,98625.94
2022-10-30T13:25:29.828Z,98634.00
2022-10-30T13:28:05.342Z,98618.34
2022-10-30T13:30:38.767Z,98627.22
2022-10-30T13:33:15.391Z,98629.66
2022-10-30T13:35:53.177Z,98628.56
2022-10-30T13:38:38.269Z,98630.44
2022-10-30T13:41:16.550Z,98635.94
2022-10-30T13:43:54.078Z,98636.19
2022-10-30T13:46:32.553Z,98640.75
2022-10-30T13:49:15.647Z,98637.44
2022-10-30T13:51:50.043Z,98635.25
2022-10-30T13:54:21.846Z,98634.81
2022-10-30T13:56:51.962Z,98631.94
2022-10-30T13:59:45.337Z,98629.53
2022-10-30T14:02:25.914Z,98622.16
2022-10-30T14:05:01.743Z,98624.03
2022-10-30T14:07:40.156Z,98618.75
2022-10-30T14:10:12.714Z,98618.81
2022-10-30T14:13:12.442Z,98621.84
2022-10-30T14:15:44.192Z,98622.06
2022-10-30T14:18:30.909Z,98625.06
2022-10-30T14:21:00.253Z,98621.81
2022-10-30T14:23:35.084Z,98630.22
2022-10-30T14:26:23.019Z,98627.13
2022-10-30T14:28:53.796Z,98623.78
2022-10-30T14:31:35.201Z,98620.25
2022-10-30T14:34:03.458Z,98630.66
2022-10-30T14:36:50.080Z,98623.75
2022-10-30T14:39:32.136Z,98621.84
2022-10-30T14:42:15.698Z,98615.81
2022-10-30T14:45:08.748Z,98608.84
2022-10-30T14:47:58.552Z,98606.50
2022-10-30T14:50:38.421Z,98607.59
2022-10-30T14:53:35.369Z,98592.03
2022-10-30T14:56:11.889Z,98606.91
2022-10-30T14:58:40.275Z,98599.44
2022-10-30T15:01:34.520Z,98611.31
2022-10-30T15:04:17.746Z,98599.28
2022-10-30T15:06:57.343Z,98599.09
2022-10-30T15:09:40.344Z,98591.09
2022-10-30T15:12:47.102Z,98595.22
2022-10-30T15:15:18.598Z,98590.69
2022-10-30T15:17:49.209Z,98602.88
2022-10-30T15:20:20.093Z,98599.72
2022-10-30T15:22:50.759Z,98605.16
2022-10-30T15:25:21.586Z,98601.53
2022-10-30T15:27:54.278Z,98603.97
2022-10-30T15:30:25.424Z,98604.91
2022-10-30T15:32:54.058Z,98606.06
2022-10-30T15:35:23.665Z,98605.69
2022-10-30T15:38:01.791Z,98599.50
2022-10-30T15:40:30.844Z,98606.28
2022-10-30T15:43:02.974Z,98598.56
2022-10-30T15:45:35.523Z,98607.41
2022-10-30T15:48:09.658Z,98606.66
2022-10-30T15:50:47.115Z,98604.03
2022-10-30T15:53:20.529Z,98600.47
2022-10-30T15:55:50.066Z,98604.59
2022-10-30T15:58:23.859Z,98593.31
2022-10-30T16:01:00.628Z,98598.88
2022-10-30T16:03:29.472Z,98597.28
2022-10-30T16:06:08.352Z,98596.63
2022-10-30T16:08:45.039Z,98601.81
2022-10-30T16:11:13.412Z,98599.81
2022-10-30T16:13:43.622Z,98598.59
2022-10-30T16:16:17.980Z,98596.06
2022-10-30T16:18:46.106Z,98602.31
2022-10-30T16:21:18.690Z,98600.03
2022-10-30T16:23:51.975Z,98603.16
2022-10-30T16:26:29.930Z,98604.34
2022-10-30T16:29:02.136Z,98603.91
2022-10-30T16:31:35.373Z,98609.44
2022-10-30T16:34:05.725Z,98600.94
2022-10-30T16:36:34.528Z,98596.34
2022-10-30T16:39:03.364Z,98592.00
2022-10-30T16:41:32.786Z,98597.38
2022-10-30T16:44:18.841Z,98601.94
2022-10-30T16:46:57.780Z,98592.25
2022-10-30T16:49:28.555Z,98598.06
2022-10-30T16:52:01.696Z,98586.00
2022-10-30T16:54:33.778Z,98586.16
2022-10-30T16:57:04.017Z,98599.38
2022-10-30T16:59:37.152Z,98592.03
2022-10-30T17:02:16.579Z,98596.63
2022-10-30T17:04:51.261Z,98599.97
2022-10-30T17:07:25.238Z,98598.19
2022-10-30T17:09:58.642Z,98601.63
2022-10-30T17:12:28.959Z,98602.09
2022-10-30T17:15:12.743Z,98598.94
2022-10-30T17:17:42.025Z,98601.28
2022-10-30T17:20:28.243Z,98604.84
2022-10-30T17:23:07.740Z,98604.56
2022-10-30T17:25:38.311Z,98605.22
2022-10-30T17:28:07.165Z,98604.19
2022-10-30T17:30:41.255Z,98606.88
2022-10-30T17:33:28.220Z,98600.28
2022-10-30T17:35:56.245Z,98609.00
2022-10-30T17:38:24.261Z,98610.72
2022-10-30T17:40:52.273Z,98608.94
2022-10-30T17:43:20.339Z,98603.25
2022-10-30T17:45:49.705Z,98601.91
2022-10-30T17:48:19.299Z,98612.69
2022-10-30T17:50:47.275Z,98597.78
2022-10-30T17:53:18.486Z,98605.66
2022-10-30T17:55:51.666Z,98602.66
2022-10-30T18:00:51.709Z,98601.38
2022-10-30T18:03:19.704Z,98605.16
2022-10-30T18:05:48.712Z,98604.81
2022-10-30T18:08:16.684Z,98610.63
2022-10-30T18:10:44.733Z,98606.56
2022-10-30T18:13:13.709Z,98607.78
2022-10-30T18:15:44.120Z,98609.88
2022-10-30T18:18:13.602Z,98605.97
2022-10-30T18:20:41.660Z,98606.09
2022-10-30T18:23:46.777Z,98602.88
2022-10-30T18:26:08.655Z,98603.81
2022-10-30T18:28:36.624Z,98604.66
2022-10-30T18:31:04.671Z,98604.47
2022-10-30T18:33:34.021Z,98607.59
2022-10-30T18:36:02.176Z,98598.75
2022-10-30T18:38:30.222Z,98605.25
2022-10-30T18:40:59.575Z,98608.91
2022-10-30T18:43:28.899Z,98604.19
2022-10-30T18:45:56.892Z,98603.31
2022-10-30T18:48:24.873Z,98604.19
2022-10-30T18:50:54.244Z,98599.44
2022-10-30T18:53:22.172Z,98605.38
2022-10-30T18:55:50.134Z,98605.66
2022-10-30T18:58:18.082Z,98604.47
2022-10-30T19:01:10.648Z,98605.00
2022-10-30T19:03:34.018Z,98612.25
2022-10-30T19:06:03.376Z,98610.28
2022-10-30T19:08:31.376Z,98612.13
2022-10-30T19:10:59.705Z,98616.66
2022-10-30T19:13:27.753Z,98609.00
2022-10-30T19:16:00.453Z,98613.59
2022-10-30T19:18:31.253Z,98608.75
2022-10-30T19:21:09.132Z,98613.38
2022-10-30T19:23:42.396Z,98607.31
2022-10-30T19:28:40.414Z,98610.53
2022-10-30T19:31:09.011Z,98610.84
2022-10-30T19:33:36.970Z,98621.59
2022-10-30T19:36:06.175Z,98616.09
2022-10-30T19:38:34.901Z,98606.50
2022-10-30T19:41:05.183Z,98609.38
2022-10-30T19:43:33.273Z,98610.94
2022-10-30T19:46:01.590Z,98609.22
2022-10-30T19:48:56.022Z,98605.22
2022-10-30T19:51:17.617Z,98618.94
2022-10-30T19:53:45.619Z,98605.94
2022-10-30T19:56:16.451Z,98602.00
2022-10-30T19:58:44.422Z,98614.59
2022-10-30T20:01:14.107Z,98612.13
2022-10-30T20:03:42.345Z,98608.13
2022-10-30T20:06:12.000Z,98601.09
2022-10-30T20:08:40.300Z,98601.63
2022-10-30T20:11:08.857Z,98609.59
2022-10-30T20:13:38.235Z,98605.75
2022-10-30T20:16:07.190Z,98608.88
2022-10-30T20:18:36.877Z,98617.09
2022-10-30T20:21:08.419Z,98609.34
2022-10-30T20:23:37.139Z,98618.44
2022-10-30T20:26:08.358Z,98613.66
2022-10-30T20:28:39.757Z,98605.84
2022-10-30T20:31:09.059Z,98609.34
2022-10-30T20:33:37.015Z,98616.00
2022-10-30T20:36:05.752Z,98613.06
2022-10-30T20:38:35.299Z,98614.09
2022-10-30T20:41:04.695Z,98621.34
2022-10-30T20:43:34.879Z,98624.44
2022-10-30T20:46:05.930Z,98620.47
2022-10-30T20:48:34.133Z,98617.28
2022-10-30T20:51:02.995Z,98611.94
2022-10-30T20:53:31.329Z,98614.41
2022-10-30T20:55:59.323Z,98614.34
2022-10-30T20:58:27.526Z,98612.38
2022-10-30T21:00:56.421Z,98615.75
2022-10-30T21:03:26.300Z,98621.06
2022-10-30T21:05:57.328Z,98613.41
2022-10-30T21:08:25.506Z,98619.31
2022-10-30T21:10:53.522Z,98616.38
2022-10-30T21:13:21.542Z,98602.09
2022-10-30T21:15:51.487Z,98614.50
2022-10-30T21:18:19.480Z,98613.03
2022-10-30T21:20:48.975Z,98606.19
2022-10-30T21:23:16.955Z,98609.53
2022-10-30T21:25:44.958Z,98614.88
2022-10-30T21:28:12.992Z,98613.97
2022-10-30T21:30:41.097Z,98618.13
2022-10-30T21:33:09.020Z,98606.06
2022-10-30T21:35:37.044Z,98608.88
2022-10-30T21:38:06.403Z,98613.72
2022-10-30T21:40:34.379Z,98609.41
2022-10-30T21:43:04.367Z,98612.00
2022-10-30T21:45:33.030Z,98604.59
2022-10-30T21:48:00.967Z,98607.72
2022-10-30T21:50:28.941Z,98611.13
2022-10-30T21:52:57.141Z,98607.38
2022-10-30T21:55:26.585Z,98605.09
2022-10-30T21:57:55.055Z,98609.25
2022-10-30T22:00:23.148Z,98621.47
2022-10-30T22:02:52.038Z,98619.97
2022-10-30T22:05:19.948Z,98611.81
2022-10-30T22:07:47.933Z,98611.63
2022-10-30T22:10:15.988Z,98613.06
2022-10-30T22:12:45.329Z,98615.44
2022-10-30T22:15:13.320Z,98625.09
2022-10-30T22:17:41.297Z,98625.97
2022-10-30T22:20:11.220Z,98615.72
2022-10-30T22:22:39.191Z,98627.41
2022-10-30T22:25:07.502Z,98614.28
2022-10-30T22:27:35.543Z,98625.47
2022-10-30T22:30:05.440Z,98615.56
2022-10-30T22:32:33.483Z,98621.41
2022-10-30T22:35:02.240Z,98624.84
2022-10-30T22:37:30.232Z,98630.81
2022-10-30T22:39:58.162Z,98628.22
2022-10-30T22:42:26.206Z,98616.25
2022-10-30T22:44:54.768Z,98621.84
2022-10-30T22:47:24.090Z,98625.16
2022-10-30T22:49:52.063Z,98615.31
2022-10-30T22:52:19.998Z,98619.88
2022-10-30T22:54:47.977Z,98619.09
2022-10-30T22:57:15.961Z,98608.72
2022-10-30T22:59:43.904Z,98605.44
2022-10-30T23:02:11.887Z,98609.22
2022-10-30T23:04:41.304Z,98599.63
2022-10-30T23:07:09.278Z,98612.25
2022-10-30T23:09:37.282Z,98611.88
2022-10-30T23:12:05.914Z,98605.13
2022-10-30T23:14:33.965Z,98606.56
2022-10-30T23:17:01.982Z,98605.44
2022-10-30T23:19:30.412Z,98608.63
2022-10-30T23:22:00.183Z,98613.09
2022-10-30T23:24:28.389Z,98607.72
2022-10-30T23:26:56.347Z,98605.16
2022-10-30T23:29:24.324Z,98610.97
2022-10-30T23:31:52.236Z,98617.41
2022-10-30T23:34:20.183Z,98613.63
2022-10-30T23:36:48.093Z,98619.69
2022-10-30T23:39:19.029Z,98615.13
2022-10-30T23:41:47.210Z,98614.66
2022-10-30T23:44:16.938Z,98611.44
2022-10-30T23:46:44.968Z,98618.28
2022-10-30T23:49:12.935Z,98613.22
2022-10-30T23:51:40.892Z,98616.22
2022-10-30T23:54:08.952Z,98615.72
2022-10-30T23:56:38.220Z,98619.28
2022-10-30T23:59:06.180Z,98613.97
